sensor_id;sensor_type;location;lat;lon;timestamp;P1;durP1;ratioP1;P2;durP2;ratioP2
9420;SDS011;4749;51.398;5.466;2023-04-24T00:02:26;13.50;;;8.20;;
9420;SDS011;4749;51.398;5.466;2023-04-24T00:04:53;11.18;;;8.32;;
9420;SDS011;4749;51.398;5.466;2023-04-24T00:07:20;12.18;;;8.70;;
9420;SDS011;4749;51.398;5.466;2023-04-24T00:09:47;12.98;;;8.25;;
9420;SDS011;4749;51.398;5.466;2023-04-24T00:12:14;14.63;;;8.75;;
9420;SDS011;4749;51.398;5.466;2023-04-24T00:14:41;14.63;;;9.05;;
9420;SDS011;4749;51.398;5.466;2023-04-24T00:17:08;17.13;;;8.90;;
9420;SDS011;4749;51.398;5.466;2023-04-24T00:19:35;13.18;;;8.35;;
9420;SDS011;4749;51.398;5.466;2023-04-24T00:22:02;11.90;;;9.18;;
9420;SDS011;4749;51.398;5.466;2023-04-24T00:24:30;11.45;;;8.25;;
9420;SDS011;4749;51.398;5.466;2023-04-24T00:26:57;14.55;;;8.60;;
9420;SDS011;4749;51.398;5.466;2023-04-24T00:29:25;14.65;;;8.73;;
9420;SDS011;4749;51.398;5.466;2023-04-24T00:31:52;9.82;;;8.13;;
9420;SDS011;4749;51.398;5.466;2023-04-24T00:42:32;13.87;;;9.17;;
9420;SDS011;4749;51.398;5.466;2023-04-24T00:45:00;14.67;;;9.07;;
9420;SDS011;4749;51.398;5.466;2023-04-24T00:47:29;14.37;;;9.40;;
9420;SDS011;4749;51.398;5.466;2023-04-24T00:49:56;12.38;;;8.88;;
9420;SDS011;4749;51.398;5.466;2023-04-24T00:52:23;13.55;;;9.10;;
9420;SDS011;4749;51.398;5.466;2023-04-24T00:54:51;17.52;;;10.30;;
9420;SDS011;4749;51.398;5.466;2023-04-24T00:57:18;15.00;;;10.27;;
9420;SDS011;4749;51.398;5.466;2023-04-24T00:59:46;19.38;;;9.63;;
9420;SDS011;4749;51.398;5.466;2023-04-24T01:02:13;14.60;;;10.10;;
9420;SDS011;4749;51.398;5.466;2023-04-24T01:04:41;17.00;;;10.00;;
9420;SDS011;4749;51.398;5.466;2023-04-24T01:07:09;17.70;;;10.55;;
9420;SDS011;4749;51.398;5.466;2023-04-24T01:09:38;13.68;;;10.55;;
9420;SDS011;4749;51.398;5.466;2023-04-24T01:12:10;18.77;;;10.50;;
9420;SDS011;4749;51.398;5.466;2023-04-24T01:14:38;18.38;;;11.85;;
9420;SDS011;4749;51.398;5.466;2023-04-24T01:17:05;18.97;;;10.77;;
9420;SDS011;4749;51.398;5.466;2023-04-24T01:19:33;21.92;;;11.63;;
9420;SDS011;4749;51.398;5.466;2023-04-24T01:22:01;16.98;;;11.52;;
9420;SDS011;4749;51.398;5.466;2023-04-24T01:24:29;19.35;;;10.85;;
9420;SDS011;4749;51.398;5.466;2023-04-24T01:26:56;19.37;;;12.23;;
9420;SDS011;4749;51.398;5.466;2023-04-24T01:29:24;16.60;;;11.15;;
9420;SDS011;4749;51.398;5.466;2023-04-24T01:31:51;17.33;;;11.60;;
9420;SDS011;4749;51.398;5.466;2023-04-24T01:34:18;20.70;;;12.77;;
9420;SDS011;4749;51.398;5.466;2023-04-24T01:36:45;17.23;;;12.05;;
9420;SDS011;4749;51.398;5.466;2023-04-24T01:39:14;20.83;;;13.05;;
9420;SDS011;4749;51.398;5.466;2023-04-24T01:41:42;22.58;;;12.77;;
9420;SDS011;4749;51.398;5.466;2023-04-24T01:44:09;20.65;;;13.40;;
9420;SDS011;4749;51.398;5.466;2023-04-24T01:46:37;20.33;;;12.73;;
9420;SDS011;4749;51.398;5.466;2023-04-24T01:49:04;18.00;;;12.60;;
9420;SDS011;4749;51.398;5.466;2023-04-24T01:51:31;19.33;;;14.05;;
9420;SDS011;4749;51.398;5.466;2023-04-24T01:53:58;19.30;;;13.45;;
9420;SDS011;4749;51.398;5.466;2023-04-24T01:56:25;21.00;;;13.50;;
9420;SDS011;4749;51.398;5.466;2023-04-24T01:58:59;19.83;;;13.30;;
9420;SDS011;4749;51.398;5.466;2023-04-24T02:01:26;20.93;;;13.77;;
9420;SDS011;4749;51.398;5.466;2023-04-24T02:03:53;20.63;;;13.43;;
9420;SDS011;4749;51.398;5.466;2023-04-24T02:06:21;23.43;;;12.83;;
9420;SDS011;4749;51.398;5.466;2023-04-24T02:08:48;18.27;;;13.30;;
9420;SDS011;4749;51.398;5.466;2023-04-24T02:19:22;20.07;;;12.97;;
9420;SDS011;4749;51.398;5.466;2023-04-24T02:21:49;22.63;;;12.75;;
9420;SDS011;4749;51.398;5.466;2023-04-24T02:24:16;20.27;;;12.75;;
9420;SDS011;4749;51.398;5.466;2023-04-24T02:26:43;20.05;;;13.13;;
9420;SDS011;4749;51.398;5.466;2023-04-24T02:29:10;19.25;;;13.23;;
9420;SDS011;4749;51.398;5.466;2023-04-24T02:31:37;21.20;;;12.27;;
9420;SDS011;4749;51.398;5.466;2023-04-24T02:34:05;18.08;;;12.65;;
9420;SDS011;4749;51.398;5.466;2023-04-24T02:36:32;19.95;;;12.80;;
9420;SDS011;4749;51.398;5.466;2023-04-24T02:38:59;21.90;;;13.80;;
9420;SDS011;4749;51.398;5.466;2023-04-24T02:41:27;20.88;;;12.73;;
9420;SDS011;4749;51.398;5.466;2023-04-24T02:43:59;21.13;;;12.65;;
9420;SDS011;4749;51.398;5.466;2023-04-24T02:46:26;23.07;;;12.80;;
9420;SDS011;4749;51.398;5.466;2023-04-24T02:48:53;23.40;;;12.30;;
9420;SDS011;4749;51.398;5.466;2023-04-24T02:51:20;21.50;;;13.05;;
9420;SDS011;4749;51.398;5.466;2023-04-24T02:53:47;17.00;;;12.07;;
9420;SDS011;4749;51.398;5.466;2023-04-24T02:56:14;18.88;;;11.43;;
9420;SDS011;4749;51.398;5.466;2023-04-24T02:58:41;19.23;;;12.27;;
9420;SDS011;4749;51.398;5.466;2023-04-24T03:01:08;19.27;;;11.23;;
9420;SDS011;4749;51.398;5.466;2023-04-24T03:03:37;17.05;;;10.40;;
9420;SDS011;4749;51.398;5.466;2023-04-24T03:06:05;15.52;;;10.68;;
9420;SDS011;4749;51.398;5.466;2023-04-24T03:08:34;17.83;;;11.43;;
9420;SDS011;4749;51.398;5.466;2023-04-24T03:11:01;21.10;;;11.10;;
9420;SDS011;4749;51.398;5.466;2023-04-24T03:13:28;15.18;;;10.63;;
9420;SDS011;4749;51.398;5.466;2023-04-24T03:15:55;14.67;;;9.97;;
9420;SDS011;4749;51.398;5.466;2023-04-24T03:18:22;17.75;;;10.40;;
9420;SDS011;4749;51.398;5.466;2023-04-24T03:20:49;14.25;;;10.45;;
9420;SDS011;4749;51.398;5.466;2023-04-24T03:23:16;16.23;;;10.07;;
9420;SDS011;4749;51.398;5.466;2023-04-24T03:25:44;13.55;;;9.93;;
9420;SDS011;4749;51.398;5.466;2023-04-24T03:28:11;16.38;;;10.20;;
9420;SDS011;4749;51.398;5.466;2023-04-24T03:30:38;13.13;;;9.18;;
9420;SDS011;4749;51.398;5.466;2023-04-24T03:33:05;13.68;;;9.55;;
9420;SDS011;4749;51.398;5.466;2023-04-24T03:35:32;14.25;;;9.68;;
9420;SDS011;4749;51.398;5.466;2023-04-24T03:38:00;17.63;;;9.88;;
9420;SDS011;4749;51.398;5.466;2023-04-24T03:40:27;14.98;;;9.73;;
9420;SDS011;4749;51.398;5.466;2023-04-24T03:42:55;16.75;;;9.73;;
9420;SDS011;4749;51.398;5.466;2023-04-24T03:45:22;14.98;;;8.55;;
9420;SDS011;4749;51.398;5.466;2023-04-24T03:47:50;13.70;;;9.40;;
9420;SDS011;4749;51.398;5.466;2023-04-24T03:50:17;14.60;;;9.45;;
9420;SDS011;4749;51.398;5.466;2023-04-24T03:52:44;16.08;;;10.30;;
9420;SDS011;4749;51.398;5.466;2023-04-24T03:55:11;14.82;;;9.95;;
9420;SDS011;4749;51.398;5.466;2023-04-24T03:57:40;15.05;;;9.90;;
9420;SDS011;4749;51.398;5.466;2023-04-24T04:00:07;13.52;;;8.88;;
9420;SDS011;4749;51.398;5.466;2023-04-24T04:02:36;13.13;;;9.25;;
9420;SDS011;4749;51.398;5.466;2023-04-24T04:05:03;15.97;;;8.63;;
9420;SDS011;4749;51.398;5.466;2023-04-24T04:07:31;11.30;;;8.82;;
9420;SDS011;4749;51.398;5.466;2023-04-24T04:09:58;11.45;;;7.97;;
9420;SDS011;4749;51.398;5.466;2023-04-24T04:12:25;12.07;;;8.18;;
9420;SDS011;4749;51.398;5.466;2023-04-24T04:14:52;10.45;;;7.82;;
9420;SDS011;4749;51.398;5.466;2023-04-24T04:17:19;11.05;;;8.18;;
9420;SDS011;4749;51.398;5.466;2023-04-24T04:19:46;9.40;;;7.50;;
9420;SDS011;4749;51.398;5.466;2023-04-24T04:22:13;10.05;;;7.20;;
9420;SDS011;4749;51.398;5.466;2023-04-24T04:24:40;10.33;;;7.20;;
9420;SDS011;4749;51.398;5.466;2023-04-24T04:27:07;10.80;;;6.90;;
9420;SDS011;4749;51.398;5.466;2023-04-24T04:29:35;10.73;;;7.03;;
9420;SDS011;4749;51.398;5.466;2023-04-24T04:32:02;8.73;;;6.23;;
9420;SDS011;4749;51.398;5.466;2023-04-24T04:34:29;9.30;;;6.90;;
9420;SDS011;4749;51.398;5.466;2023-04-24T04:36:57;8.52;;;6.38;;
9420;SDS011;4749;51.398;5.466;2023-04-24T04:39:28;9.50;;;6.13;;
9420;SDS011;4749;51.398;5.466;2023-04-24T04:41:56;12.30;;;6.45;;
9420;SDS011;4749;51.398;5.466;2023-04-24T04:44:23;7.60;;;6.13;;
9420;SDS011;4749;51.398;5.466;2023-04-24T04:46:50;8.80;;;6.63;;
9420;SDS011;4749;51.398;5.466;2023-04-24T04:49:19;9.87;;;6.40;;
9420;SDS011;4749;51.398;5.466;2023-04-24T04:51:47;7.33;;;5.97;;
9420;SDS011;4749;51.398;5.466;2023-04-24T04:54:17;7.03;;;6.27;;
9420;SDS011;4749;51.398;5.466;2023-04-24T04:56:44;9.97;;;6.20;;
9420;SDS011;4749;51.398;5.466;2023-04-24T04:59:11;8.10;;;6.13;;
9420;SDS011;4749;51.398;5.466;2023-04-24T05:01:39;8.73;;;5.78;;
9420;SDS011;4749;51.398;5.466;2023-04-24T05:04:06;6.70;;;5.40;;
9420;SDS011;4749;51.398;5.466;2023-04-24T05:06:34;6.57;;;5.30;;
9420;SDS011;4749;51.398;5.466;2023-04-24T05:09:01;10.60;;;6.23;;
9420;SDS011;4749;51.398;5.466;2023-04-24T05:11:28;8.30;;;6.20;;
9420;SDS011;4749;51.398;5.466;2023-04-24T05:13:55;5.53;;;4.73;;
9420;SDS011;4749;51.398;5.466;2023-04-24T05:16:22;5.50;;;3.97;;
9420;SDS011;4749;51.398;5.466;2023-04-24T05:18:50;6.18;;;4.05;;
9420;SDS011;4749;51.398;5.466;2023-04-24T05:21:18;5.70;;;3.53;;
9420;SDS011;4749;51.398;5.466;2023-04-24T05:23:47;6.23;;;3.57;;
9420;SDS011;4749;51.398;5.466;2023-04-24T05:26:14;4.13;;;3.13;;
9420;SDS011;4749;51.398;5.466;2023-04-24T05:28:42;3.67;;;3.00;;
9420;SDS011;4749;51.398;5.466;2023-04-24T05:31:10;3.90;;;2.97;;
9420;SDS011;4749;51.398;5.466;2023-04-24T05:33:44;4.47;;;2.40;;
9420;SDS011;4749;51.398;5.466;2023-04-24T05:36:13;3.40;;;2.50;;
9420;SDS011;4749;51.398;5.466;2023-04-24T05:38:42;3.30;;;2.07;;
9420;SDS011;4749;51.398;5.466;2023-04-24T05:41:09;3.03;;;1.93;;
9420;SDS011;4749;51.398;5.466;2023-04-24T05:43:36;2.93;;;1.57;;
9420;SDS011;4749;51.398;5.466;2023-04-24T05:46:04;4.53;;;1.77;;
9420;SDS011;4749;51.398;5.466;2023-04-24T05:48:32;2.80;;;1.40;;
9420;SDS011;4749;51.398;5.466;2023-04-24T05:51:01;3.37;;;1.40;;
9420;SDS011;4749;51.398;5.466;2023-04-24T05:53:28;3.13;;;1.20;;
9420;SDS011;4749;51.398;5.466;2023-04-24T05:55:59;3.23;;;1.53;;
9420;SDS011;4749;51.398;5.466;2023-04-24T05:58:29;2.00;;;1.33;;
9420;SDS011;4749;51.398;5.466;2023-04-24T06:00:56;2.37;;;1.30;;
9420;SDS011;4749;51.398;5.466;2023-04-24T06:03:24;1.30;;;1.20;;
9420;SDS011;4749;51.398;5.466;2023-04-24T06:05:52;1.40;;;1.30;;
9420;SDS011;4749;51.398;5.466;2023-04-24T06:08:19;4.53;;;1.40;;
9420;SDS011;4749;51.398;5.466;2023-04-24T06:10:46;3.27;;;1.73;;
9420;SDS011;4749;51.398;5.466;2023-04-24T06:13:13;4.10;;;1.60;;
9420;SDS011;4749;51.398;5.466;2023-04-24T06:15:41;3.13;;;1.60;;
9420;SDS011;4749;51.398;5.466;2023-04-24T06:18:09;4.27;;;1.73;;
9420;SDS011;4749;51.398;5.466;2023-04-24T06:20:36;3.70;;;2.40;;
9420;SDS011;4749;51.398;5.466;2023-04-24T06:23:05;4.27;;;2.10;;
9420;SDS011;4749;51.398;5.466;2023-04-24T06:25:32;4.60;;;2.50;;
9420;SDS011;4749;51.398;5.466;2023-04-24T06:27:59;3.40;;;2.20;;
9420;SDS011;4749;51.398;5.466;2023-04-24T06:30:27;3.63;;;2.47;;
9420;SDS011;4749;51.398;5.466;2023-04-24T06:32:55;4.37;;;2.80;;
9420;SDS011;4749;51.398;5.466;2023-04-24T06:35:35;5.90;;;3.57;;
9420;SDS011;4749;51.398;5.466;2023-04-24T06:38:04;5.37;;;3.33;;
9420;SDS011;4749;51.398;5.466;2023-04-24T06:40:31;8.43;;;3.83;;
9420;SDS011;4749;51.398;5.466;2023-04-24T06:42:59;6.57;;;4.47;;
9420;SDS011;4749;51.398;5.466;2023-04-24T06:45:29;8.40;;;5.10;;
9420;SDS011;4749;51.398;5.466;2023-04-24T06:47:56;5.82;;;4.78;;
9420;SDS011;4749;51.398;5.466;2023-04-24T06:50:23;13.77;;;7.07;;
9420;SDS011;4749;51.398;5.466;2023-04-24T06:52:51;12.93;;;6.40;;
9420;SDS011;4749;51.398;5.466;2023-04-24T06:55:18;12.43;;;6.70;;
9420;SDS011;4749;51.398;5.466;2023-04-24T06:57:45;13.70;;;7.07;;
9420;SDS011;4749;51.398;5.466;2023-04-24T07:00:12;11.83;;;6.90;;
9420;SDS011;4749;51.398;5.466;2023-04-24T07:02:40;15.90;;;7.43;;
9420;SDS011;4749;51.398;5.466;2023-04-24T07:05:07;13.93;;;8.17;;
9420;SDS011;4749;51.398;5.466;2023-04-24T07:07:34;13.27;;;7.97;;
9420;SDS011;4749;51.398;5.466;2023-04-24T07:10:06;15.90;;;8.27;;
9420;SDS011;4749;51.398;5.466;2023-04-24T07:12:34;11.53;;;7.60;;
9420;SDS011;4749;51.398;5.466;2023-04-24T07:15:02;13.17;;;8.20;;
9420;SDS011;4749;51.398;5.466;2023-04-24T07:17:29;14.43;;;8.17;;
9420;SDS011;4749;51.398;5.466;2023-04-24T07:19:57;13.73;;;8.13;;
9420;SDS011;4749;51.398;5.466;2023-04-24T07:22:24;11.70;;;8.27;;
9420;SDS011;4749;51.398;5.466;2023-04-24T07:24:51;14.80;;;8.15;;
9420;SDS011;4749;51.398;5.466;2023-04-24T07:27:18;14.97;;;8.63;;
9420;SDS011;4749;51.398;5.466;2023-04-24T07:29:45;13.00;;;7.57;;
9420;SDS011;4749;51.398;5.466;2023-04-24T07:32:12;12.33;;;7.60;;
9420;SDS011;4749;51.398;5.466;2023-04-24T07:34:39;10.97;;;6.60;;
9420;SDS011;4749;51.398;5.466;2023-04-24T07:37:07;9.57;;;6.23;;
9420;SDS011;4749;51.398;5.466;2023-04-24T07:39:34;14.47;;;7.17;;
9420;SDS011;4749;51.398;5.466;2023-04-24T07:42:02;10.23;;;6.07;;
9420;SDS011;4749;51.398;5.466;2023-04-24T07:44:29;16.07;;;6.17;;
9420;SDS011;4749;51.398;5.466;2023-04-24T07:46:56;11.93;;;6.03;;
9420;SDS011;4749;51.398;5.466;2023-04-24T07:49:24;13.10;;;5.60;;
9420;SDS011;4749;51.398;5.466;2023-04-24T07:51:51;11.87;;;5.50;;
9420;SDS011;4749;51.398;5.466;2023-04-24T07:54:18;18.07;;;6.03;;
9420;SDS011;4749;51.398;5.466;2023-04-24T07:56:45;12.80;;;5.20;;
9420;SDS011;4749;51.398;5.466;2023-04-24T07:59:12;14.07;;;5.53;;
9420;SDS011;4749;51.398;5.466;2023-04-24T08:01:39;13.67;;;6.10;;
9420;SDS011;4749;51.398;5.466;2023-04-24T08:04:06;12.43;;;5.47;;
9420;SDS011;4749;51.398;5.466;2023-04-24T08:06:34;14.00;;;6.00;;
9420;SDS011;4749;51.398;5.466;2023-04-24T08:09:01;14.57;;;5.70;;
9420;SDS011;4749;51.398;5.466;2023-04-24T08:11:29;17.83;;;7.13;;
9420;SDS011;4749;51.398;5.466;2023-04-24T08:13:56;12.73;;;5.97;;
9420;SDS011;4749;51.398;5.466;2023-04-24T08:16:23;15.63;;;6.43;;
9420;SDS011;4749;51.398;5.466;2023-04-24T08:18:50;24.47;;;7.10;;
9420;SDS011;4749;51.398;5.466;2023-04-24T08:21:18;14.27;;;6.40;;
9420;SDS011;4749;51.398;5.466;2023-04-24T08:23:46;18.40;;;6.90;;
9420;SDS011;4749;51.398;5.466;2023-04-24T08:26:13;16.53;;;6.20;;
9420;SDS011;4749;51.398;5.466;2023-04-24T08:28:41;14.10;;;6.20;;
9420;SDS011;4749;51.398;5.466;2023-04-24T08:31:09;15.57;;;5.53;;
9420;SDS011;4749;51.398;5.466;2023-04-24T08:33:36;15.57;;;6.37;;
9420;SDS011;4749;51.398;5.466;2023-04-24T08:36:04;12.80;;;5.50;;
9420;SDS011;4749;51.398;5.466;2023-04-24T08:38:32;13.43;;;5.07;;
9420;SDS011;4749;51.398;5.466;2023-04-24T08:41:00;15.60;;;5.35;;
9420;SDS011;4749;51.398;5.466;2023-04-24T08:43:28;14.23;;;4.72;;
9420;SDS011;4749;51.398;5.466;2023-04-24T08:45:56;11.20;;;4.22;;
9420;SDS011;4749;51.398;5.466;2023-04-24T08:48:24;14.70;;;4.45;;
9420;SDS011;4749;51.398;5.466;2023-04-24T08:50:57;9.77;;;4.35;;
9420;SDS011;4749;51.398;5.466;2023-04-24T08:53:25;13.52;;;3.83;;
9420;SDS011;4749;51.398;5.466;2023-04-24T08:55:54;10.60;;;4.10;;
9420;SDS011;4749;51.398;5.466;2023-04-24T08:58:24;14.68;;;4.65;;
9420;SDS011;4749;51.398;5.466;2023-04-24T09:00:56;8.63;;;3.05;;
9420;SDS011;4749;51.398;5.466;2023-04-24T09:03:24;10.85;;;3.60;;
9420;SDS011;4749;51.398;5.466;2023-04-24T09:05:55;13.07;;;3.47;;
9420;SDS011;4749;51.398;5.466;2023-04-24T09:08:24;10.85;;;3.17;;
9420;SDS011;4749;51.398;5.466;2023-04-24T09:10:52;10.85;;;2.88;;
9420;SDS011;4749;51.398;5.466;2023-04-24T09:13:19;8.77;;;2.92;;
9420;SDS011;4749;51.398;5.466;2023-04-24T09:15:47;10.05;;;2.97;;
9420;SDS011;4749;51.398;5.466;2023-04-24T09:18:14;10.55;;;2.83;;
9420;SDS011;4749;51.398;5.466;2023-04-24T09:20:57;11.30;;;2.50;;
9420;SDS011;4749;51.398;5.466;2023-04-24T09:23:27;7.13;;;2.20;;
9420;SDS011;4749;51.398;5.466;2023-04-24T09:25:56;6.90;;;2.60;;
9420;SDS011;4749;51.398;5.466;2023-04-24T09:28:25;8.57;;;2.53;;
9420;SDS011;4749;51.398;5.466;2023-04-24T09:31:31;7.35;;;2.60;;
9420;SDS011;4749;51.398;5.466;2023-04-24T09:33:53;11.02;;;3.00;;
9420;SDS011;4749;51.398;5.466;2023-04-24T09:36:34;7.22;;;2.72;;
9420;SDS011;4749;51.398;5.466;2023-04-24T09:39:07;10.85;;;2.90;;
9420;SDS011;4749;51.398;5.466;2023-04-24T09:41:51;9.20;;;2.38;;
9420;SDS011;4749;51.398;5.466;2023-04-24T09:44:24;10.15;;;2.95;;
9420;SDS011;4749;51.398;5.466;2023-04-24T09:49:29;7.57;;;2.45;;
9420;SDS011;4749;51.398;5.466;2023-04-24T09:52:03;8.38;;;2.55;;
9420;SDS011;4749;51.398;5.466;2023-04-24T09:54:36;12.48;;;2.25;;
9420;SDS011;4749;51.398;5.466;2023-04-24T09:57:04;11.90;;;2.97;;
9420;SDS011;4749;51.398;5.466;2023-04-24T09:59:34;7.20;;;2.22;;
9420;SDS011;4749;51.398;5.466;2023-04-24T10:02:02;12.93;;;2.50;;
9420;SDS011;4749;51.398;5.466;2023-04-24T10:04:53;8.20;;;2.83;;
9420;SDS011;4749;51.398;5.466;2023-04-24T10:07:26;9.75;;;2.15;;
9420;SDS011;4749;51.398;5.466;2023-04-24T10:09:54;6.75;;;2.05;;
9420;SDS011;4749;51.398;5.466;2023-04-24T10:12:21;5.93;;;1.90;;
9420;SDS011;4749;51.398;5.466;2023-04-24T10:14:49;7.00;;;1.88;;
9420;SDS011;4749;51.398;5.466;2023-04-24T10:17:16;4.80;;;1.70;;
9420;SDS011;4749;51.398;5.466;2023-04-24T10:19:46;7.95;;;2.30;;
9420;SDS011;4749;51.398;5.466;2023-04-24T10:22:14;7.35;;;2.10;;
9420;SDS011;4749;51.398;5.466;2023-04-24T10:24:44;7.57;;;1.90;;
9420;SDS011;4749;51.398;5.466;2023-04-24T10:27:11;10.95;;;2.20;;
9420;SDS011;4749;51.398;5.466;2023-04-24T10:29:41;6.25;;;1.80;;
9420;SDS011;4749;51.398;5.466;2023-04-24T10:32:10;7.78;;;1.92;;
9420;SDS011;4749;51.398;5.466;2023-04-24T10:34:37;9.88;;;3.05;;
9420;SDS011;4749;51.398;5.466;2023-04-24T10:37:05;4.68;;;1.63;;
9420;SDS011;4749;51.398;5.466;2023-04-24T10:39:32;6.82;;;1.90;;
9420;SDS011;4749;51.398;5.466;2023-04-24T10:41:59;5.82;;;1.58;;
9420;SDS011;4749;51.398;5.466;2023-04-24T10:44:27;7.32;;;1.70;;
9420;SDS011;4749;51.398;5.466;2023-04-24T10:47:03;7.07;;;1.60;;
9420;SDS011;4749;51.398;5.466;2023-04-24T10:49:31;5.15;;;1.92;;
9420;SDS011;4749;51.398;5.466;2023-04-24T10:52:02;8.48;;;1.30;;
9420;SDS011;4749;51.398;5.466;2023-04-24T10:59:45;2.33;;;1.20;;
9420;SDS011;4749;51.398;5.466;2023-04-24T11:02:14;4.55;;;1.00;;
9420;SDS011;4749;51.398;5.466;2023-04-24T11:04:42;4.72;;;1.23;;
9420;SDS011;4749;51.398;5.466;2023-04-24T11:07:11;3.58;;;1.00;;
9420;SDS011;4749;51.398;5.466;2023-04-24T11:09:38;5.10;;;0.98;;
9420;SDS011;4749;51.398;5.466;2023-04-24T11:12:10;3.97;;;1.00;;
9420;SDS011;4749;51.398;5.466;2023-04-24T11:17:38;2.85;;;1.02;;
9420;SDS011;4749;51.398;5.466;2023-04-24T11:20:16;6.35;;;1.58;;
9420;SDS011;4749;51.398;5.466;2023-04-24T11:22:54;3.20;;;0.93;;
9420;SDS011;4749;51.398;5.466;2023-04-24T11:25:23;4.15;;;1.10;;
9420;SDS011;4749;51.398;5.466;2023-04-24T11:27:52;3.67;;;1.08;;
9420;SDS011;4749;51.398;5.466;2023-04-24T11:30:31;3.03;;;1.00;;
9420;SDS011;4749;51.398;5.466;2023-04-24T11:33:03;4.15;;;0.93;;
9420;SDS011;4749;51.398;5.466;2023-04-24T11:35:35;3.70;;;1.15;;
9420;SDS011;4749;51.398;5.466;2023-04-24T11:38:06;4.28;;;0.82;;
9420;SDS011;4749;51.398;5.466;2023-04-24T11:40:49;3.10;;;0.90;;
9420;SDS011;4749;51.398;5.466;2023-04-24T11:43:18;2.45;;;0.75;;
9420;SDS011;4749;51.398;5.466;2023-04-24T11:45:50;6.32;;;1.05;;
9420;SDS011;4749;51.398;5.466;2023-04-24T11:48:19;2.42;;;0.82;;
9420;SDS011;4749;51.398;5.466;2023-04-24T11:50:49;5.72;;;1.35;;
9420;SDS011;4749;51.398;5.466;2023-04-24T11:53:18;1.95;;;0.60;;
9420;SDS011;4749;51.398;5.466;2023-04-24T11:55:48;3.92;;;0.60;;
9420;SDS011;4749;51.398;5.466;2023-04-24T11:58:15;2.35;;;0.70;;
9420;SDS011;4749;51.398;5.466;2023-04-24T12:00:55;1.83;;;0.90;;
9420;SDS011;4749;51.398;5.466;2023-04-24T12:03:24;2.97;;;0.80;;
9420;SDS011;4749;51.398;5.466;2023-04-24T12:05:52;1.65;;;1.00;;
9420;SDS011;4749;51.398;5.466;2023-04-24T12:08:28;2.17;;;0.60;;
9420;SDS011;4749;51.398;5.466;2023-04-24T12:10:57;2.72;;;0.82;;
9420;SDS011;4749;51.398;5.466;2023-04-24T12:13:25;1.25;;;0.70;;
9420;SDS011;4749;51.398;5.466;2023-04-24T12:15:52;2.67;;;0.70;;
9420;SDS011;4749;51.398;5.466;2023-04-24T12:18:23;2.03;;;0.50;;
9420;SDS011;4749;51.398;5.466;2023-04-24T12:20:50;1.67;;;0.60;;
9420;SDS011;4749;51.398;5.466;2023-04-24T12:23:39;1.52;;;0.60;;
9420;SDS011;4749;51.398;5.466;2023-04-24T12:26:05;0.75;;;0.60;;
9420;SDS011;4749;51.398;5.466;2023-04-24T12:28:35;2.10;;;0.65;;
9420;SDS011;4749;51.398;5.466;2023-04-24T12:31:05;2.13;;;0.73;;
9420;SDS011;4749;51.398;5.466;2023-04-24T12:33:34;1.35;;;0.85;;
9420;SDS011;4749;51.398;5.466;2023-04-24T12:36:01;3.55;;;0.75;;
9420;SDS011;4749;51.398;5.466;2023-04-24T12:38:29;2.03;;;0.63;;
9420;SDS011;4749;51.398;5.466;2023-04-24T12:43:50;2.25;;;0.82;;
9420;SDS011;4749;51.398;5.466;2023-04-24T12:46:21;2.88;;;0.70;;
9420;SDS011;4749;51.398;5.466;2023-04-24T12:48:49;1.33;;;0.70;;
9420;SDS011;4749;51.398;5.466;2023-04-24T12:51:16;3.80;;;0.50;;
9420;SDS011;4749;51.398;5.466;2023-04-24T12:53:43;1.20;;;0.60;;
9420;SDS011;4749;51.398;5.466;2023-04-24T12:56:11;2.65;;;0.65;;
9420;SDS011;4749;51.398;5.466;2023-04-24T12:58:38;3.13;;;0.90;;
9420;SDS011;4749;51.398;5.466;2023-04-24T13:01:05;4.00;;;0.60;;
9420;SDS011;4749;51.398;5.466;2023-04-24T13:03:32;3.30;;;0.70;;
9420;SDS011;4749;51.398;5.466;2023-04-24T13:05:59;6.57;;;0.80;;
9420;SDS011;4749;51.398;5.466;2023-04-24T13:08:26;1.58;;;1.00;;
9420;SDS011;4749;51.398;5.466;2023-04-24T13:10:53;2.47;;;1.00;;
9420;SDS011;4749;51.398;5.466;2023-04-24T13:13:21;1.88;;;0.80;;
9420;SDS011;4749;51.398;5.466;2023-04-24T13:15:49;5.07;;;1.50;;
9420;SDS011;4749;51.398;5.466;2023-04-24T13:18:18;3.45;;;0.90;;
9420;SDS011;4749;51.398;5.466;2023-04-24T13:20:45;4.40;;;1.00;;
9420;SDS011;4749;51.398;5.466;2023-04-24T13:23:13;4.82;;;1.10;;
9420;SDS011;4749;51.398;5.466;2023-04-24T13:25:42;3.95;;;1.30;;
9420;SDS011;4749;51.398;5.466;2023-04-24T13:28:09;3.90;;;1.02;;
9420;SDS011;4749;51.398;5.466;2023-04-24T13:30:36;2.75;;;0.98;;
9420;SDS011;4749;51.398;5.466;2023-04-24T13:33:03;3.03;;;1.00;;
9420;SDS011;4749;51.398;5.466;2023-04-24T13:35:30;3.30;;;1.10;;
9420;SDS011;4749;51.398;5.466;2023-04-24T13:37:58;3.53;;;1.10;;
9420;SDS011;4749;51.398;5.466;2023-04-24T13:40:25;2.95;;;1.08;;
9420;SDS011;4749;51.398;5.466;2023-04-24T13:42:53;3.00;;;1.05;;
9420;SDS011;4749;51.398;5.466;2023-04-24T13:45:20;3.28;;;1.17;;
9420;SDS011;4749;51.398;5.466;2023-04-24T13:47:51;2.22;;;1.15;;
9420;SDS011;4749;51.398;5.466;2023-04-24T13:50:20;5.40;;;1.38;;
9420;SDS011;4749;51.398;5.466;2023-04-24T13:52:47;2.70;;;1.10;;
9420;SDS011;4749;51.398;5.466;2023-04-24T13:55:14;2.88;;;1.05;;
9420;SDS011;4749;51.398;5.466;2023-04-24T13:57:41;4.03;;;1.08;;
9420;SDS011;4749;51.398;5.466;2023-04-24T14:00:08;3.08;;;1.00;;
9420;SDS011;4749;51.398;5.466;2023-04-24T14:02:37;1.88;;;0.93;;
9420;SDS011;4749;51.398;5.466;2023-04-24T14:05:04;2.25;;;0.90;;
9420;SDS011;4749;51.398;5.466;2023-04-24T14:07:32;2.30;;;1.10;;
9420;SDS011;4749;51.398;5.466;2023-04-24T14:09:59;6.10;;;1.30;;
9420;SDS011;4749;51.398;5.466;2023-04-24T14:12:27;5.22;;;1.10;;
9420;SDS011;4749;51.398;5.466;2023-04-24T14:14:54;5.53;;;1.00;;
9420;SDS011;4749;51.398;5.466;2023-04-24T14:17:21;3.85;;;1.00;;
9420;SDS011;4749;51.398;5.466;2023-04-24T14:19:48;2.63;;;1.00;;
9420;SDS011;4749;51.398;5.466;2023-04-24T14:22:16;2.50;;;0.90;;
9420;SDS011;4749;51.398;5.466;2023-04-24T14:24:43;2.22;;;1.00;;
9420;SDS011;4749;51.398;5.466;2023-04-24T14:27:10;3.22;;;1.20;;
9420;SDS011;4749;51.398;5.466;2023-04-24T14:29:37;4.18;;;1.50;;
9420;SDS011;4749;51.398;5.466;2023-04-24T14:32:04;2.35;;;1.00;;
9420;SDS011;4749;51.398;5.466;2023-04-24T14:34:31;1.67;;;0.90;;
9420;SDS011;4749;51.398;5.466;2023-04-24T14:36:58;2.28;;;1.00;;
9420;SDS011;4749;51.398;5.466;2023-04-24T14:39:25;3.17;;;1.05;;
9420;SDS011;4749;51.398;5.466;2023-04-24T14:41:52;3.35;;;1.20;;
9420;SDS011;4749;51.398;5.466;2023-04-24T14:44:19;6.10;;;1.45;;
9420;SDS011;4749;51.398;5.466;2023-04-24T14:46:47;1.85;;;1.00;;
9420;SDS011;4749;51.398;5.466;2023-04-24T14:49:15;2.55;;;1.00;;
9420;SDS011;4749;51.398;5.466;2023-04-24T14:51:42;4.97;;;1.10;;
9420;SDS011;4749;51.398;5.466;2023-04-24T14:54:10;3.92;;;1.15;;
9420;SDS011;4749;51.398;5.466;2023-04-24T14:56:37;2.55;;;1.00;;
9420;SDS011;4749;51.398;5.466;2023-04-24T14:59:07;1.90;;;1.20;;
9420;SDS011;4749;51.398;5.466;2023-04-24T15:01:34;2.20;;;0.90;;
9420;SDS011;4749;51.398;5.466;2023-04-24T15:04:01;4.45;;;1.27;;
9420;SDS011;4749;51.398;5.466;2023-04-24T15:06:29;4.43;;;1.17;;
9420;SDS011;4749;51.398;5.466;2023-04-24T15:08:57;3.33;;;0.93;;
9420;SDS011;4749;51.398;5.466;2023-04-24T15:11:25;3.35;;;1.17;;
9420;SDS011;4749;51.398;5.466;2023-04-24T15:13:52;3.42;;;0.90;;
9420;SDS011;4749;51.398;5.466;2023-04-24T15:16:19;3.88;;;1.02;;
9420;SDS011;4749;51.398;5.466;2023-04-24T15:18:46;1.63;;;0.93;;
9420;SDS011;4749;51.398;5.466;2023-04-24T15:21:13;2.75;;;1.15;;
9420;SDS011;4749;51.398;5.466;2023-04-24T15:23:41;2.30;;;0.93;;
9420;SDS011;4749;51.398;5.466;2023-04-24T15:26:08;1.77;;;0.82;;
9420;SDS011;4749;51.398;5.466;2023-04-24T15:28:35;2.15;;;0.75;;
9420;SDS011;4749;51.398;5.466;2023-04-24T15:31:02;3.13;;;1.00;;
9420;SDS011;4749;51.398;5.466;2023-04-24T15:33:29;2.75;;;0.95;;
9420;SDS011;4749;51.398;5.466;2023-04-24T15:35:56;2.03;;;1.10;;
9420;SDS011;4749;51.398;5.466;2023-04-24T15:38:23;2.28;;;0.90;;
9420;SDS011;4749;51.398;5.466;2023-04-24T15:40:51;2.88;;;0.80;;
9420;SDS011;4749;51.398;5.466;2023-04-24T15:43:18;1.58;;;0.75;;
9420;SDS011;4749;51.398;5.466;2023-04-24T15:45:45;1.95;;;0.90;;